Time;durP1;ratioP1;P1;durP2;ratioP2;P2;SDS_P1;SDS_P2;PMS_P1;PMS_P2;Temp;Humidity;BMP_temperature;BMP_pressure;BME280_temperature;BME280_humidity;BME280_pressure;Samples;Min_cycle;Max_cycle;Signal;HPM_P1;HPM_P2
2023/11/10 00:01:47;;;;;;;215.87;55.87;;;;;;;;;;5015471;28;20175;-43
2023/11/10 00:04:15;;;;;;;215.67;55.37;;;;;;;;;;5015393;28;20409;-44
2023/11/10 00:06:43;;;;;;;215.55;55.30;;;;;;;;;;5015303;28;20413;-45
2023/11/10 00:09:09;;;;;;;216.13;55.58;;;;;;;;;;5015570;28;20198;-44
2023/11/10 00:11:35;;;;;;;216.85;58.63;;;;;;;;;;5015622;28;20213;-43
2023/11/10 00:14:01;;;;;;;213.07;53.55;;;;;;;;;;5015430;28;20588;-43
2023/11/10 00:16:27;;;;;;;218.57;57.50;;;;;;;;;;5015229;28;20174;-43
2023/11/10 00:18:56;;;;;;;214.10;53.63;;;;;;;;;;5014874;28;20440;-44
2023/11/10 00:21:23;;;;;;;213.48;52.80;;;;;;;;;;5015246;28;20431;-43
2023/11/10 00:23:49;;;;;;;220.82;60.05;;;;;;;;;;5015046;28;20197;-44
2023/11/10 00:26:21;;;;;;;215.38;54.13;;;;;;;;;;5015265;28;20174;-43
2023/11/10 00:28:47;;;;;;;215.73;55.35;;;;;;;;;;5014932;28;20569;-43
2023/11/10 00:31:13;;;;;;;212.37;53.27;;;;;;;;;;5015093;28;20283;-44
2023/11/10 00:33:42;;;;;;;214.93;53.90;;;;;;;;;;5014883;28;20971;-43
2023/11/10 00:36:09;;;;;;;216.23;56.00;;;;;;;;;;5015016;28;20178;-43
2023/11/10 00:38:35;;;;;;;216.38;55.83;;;;;;;;;;5014377;28;20205;-45
2023/11/10 00:41:01;;;;;;;213.93;54.70;;;;;;;;;;5015066;28;20202;-42
2023/11/10 00:43:27;;;;;;;215.77;56.17;;;;;;;;;;5011968;28;20433;-43
2023/11/10 00:45:56;;;;;;;212.97;52.90;;;;;;;;;;5014629;28;20417;-44
2023/11/10 00:48:22;;;;;;;214.00;54.10;;;;;;;;;;5014531;28;20440;-43
2023/11/10 00:50:48;;;;;;;212.93;54.75;;;;;;;;;;5012067;28;20204;-44
2023/11/10 00:53:14;;;;;;;213.43;54.77;;;;;;;;;;5014625;28;20613;-43
2023/11/10 00:55:40;;;;;;;213.90;55.17;;;;;;;;;;5014474;28;20780;-43
2023/11/10 00:58:06;;;;;;;213.63;54.75;;;;;;;;;;5014167;28;20429;-43
2023/11/10 01:00:36;;;;;;;217.55;58.47;;;;;;;;;;5014360;28;20770;-43
2023/11/10 01:03:05;;;;;;;216.15;57.40;;;;;;;;;;5014456;28;20280;-44
2023/11/10 01:05:31;;;;;;;217.18;57.28;;;;;;;;;;5014193;28;20211;-44
2023/11/10 01:07:57;;;;;;;216.15;55.88;;;;;;;;;;5014064;28;20220;-43
2023/11/10 01:10:23;;;;;;;214.33;54.20;;;;;;;;;;5014211;28;20213;-43
2023/11/10 01:12:49;;;;;;;215.87;56.10;;;;;;;;;;5014214;28;20406;-43
2023/11/10 01:15:15;;;;;;;213.47;53.63;;;;;;;;;;5014239;28;20748;-44
2023/11/10 01:17:42;;;;;;;215.40;55.65;;;;;;;;;;5013886;28;20850;-43
2023/11/10 01:20:11;;;;;;;214.18;55.35;;;;;;;;;;5013945;28;20176;-43
2023/11/10 01:22:38;;;;;;;215.38;55.08;;;;;;;;;;5014010;28;20260;-44
2023/11/10 01:25:07;;;;;;;215.80;55.67;;;;;;;;;;5014072;28;20170;-43
2023/11/10 01:27:34;;;;;;;217.63;57.10;;;;;;;;;;5012390;28;20708;-43
2023/11/10 01:30:00;;;;;;;214.23;54.28;;;;;;;;;;5013916;28;20256;-43
2023/11/10 01:32:26;;;;;;;217.20;55.40;;;;;;;;;;5013744;28;20664;-44
2023/11/10 01:34:54;;;;;;;218.80;56.70;;;;;;;;;;5013706;28;20214;-43
2023/11/10 01:37:20;;;;;;;215.07;54.53;;;;;;;;;;5013494;28;20277;-43
2023/11/10 01:39:46;;;;;;;218.15;57.10;;;;;;;;;;5013632;28;20217;-43
2023/11/10 01:42:13;;;;;;;217.63;57.70;;;;;;;;;;5013732;28;20649;-44
2023/11/10 01:44:39;;;;;;;216.98;56.22;;;;;;;;;;5013721;28;20456;-43
2023/11/10 01:47:09;;;;;;;217.70;57.47;;;;;;;;;;5013258;28;20202;-44
2023/11/10 01:49:35;;;;;;;219.27;57.67;;;;;;;;;;5013499;28;20421;-44
2023/11/10 01:52:03;;;;;;;215.33;54.67;;;;;;;;;;5013701;28;20232;-43
2023/11/10 01:54:34;;;;;;;216.18;54.80;;;;;;;;;;5014169;28;20449;-44
2023/11/10 01:57:00;;;;;;;220.80;59.58;;;;;;;;;;5021389;28;20179;-44
2023/11/10 01:59:28;;;;;;;212.60;52.80;;;;;;;;;;5028848;28;20273;-44
2023/11/10 02:01:54;;;;;;;218.32;57.60;;;;;;;;;;5013322;28;20166;-44
2023/11/10 02:04:20;;;;;;;212.68;51.92;;;;;;;;;;5032925;28;20464;-44
2023/11/10 02:06:47;;;;;;;216.07;55.30;;;;;;;;;;5015794;28;20191;-44
2023/11/10 02:09:15;;;;;;;212.70;52.67;;;;;;;;;;5025326;28;20422;-44
2023/11/10 02:11:41;;;;;;;220.73;58.03;;;;;;;;;;5023651;28;20198;-44
2023/11/10 02:14:11;;;;;;;215.98;54.13;;;;;;;;;;5017385;28;20251;-44
2023/11/10 02:16:37;;;;;;;220.43;58.13;;;;;;;;;;5031124;28;20170;-44
2023/11/10 02:19:04;;;;;;;217.57;57.13;;;;;;;;;;5012047;28;20187;-44
2023/11/10 02:21:30;;;;;;;218.98;57.72;;;;;;;;;;5011979;28;20178;-44
2023/11/10 02:23:58;;;;;;;214.40;54.25;;;;;;;;;;4999918;28;20190;-44
2023/11/10 02:26:24;;;;;;;217.07;56.08;;;;;;;;;;5001835;28;20186;-44
2023/11/10 02:28:50;;;;;;;217.48;56.50;;;;;;;;;;5007003;28;20291;-44
2023/11/10 02:31:16;;;;;;;217.98;57.25;;;;;;;;;;4993615;28;20210;-44
2023/11/10 02:33:42;;;;;;;218.67;57.47;;;;;;;;;;5012284;28;20182;-44
2023/11/10 02:36:09;;;;;;;213.03;53.57;;;;;;;;;;4995975;28;20501;-44
2023/11/10 02:38:53;;;;;;;217.20;55.47;;;;;;;;;;5004324;28;20445;-44
2023/11/10 02:41:19;;;;;;;216.55;56.33;;;;;;;;;;5001285;28;20189;-44
2023/11/10 02:43:45;;;;;;;216.27;55.60;;;;;;;;;;5001458;28;20182;-44
2023/11/10 02:46:11;;;;;;;213.57;53.53;;;;;;;;;;5009212;28;20422;-44
2023/11/10 02:48:38;;;;;;;216.67;55.37;;;;;;;;;;5010760;28;20436;-44
2023/11/10 02:51:04;;;;;;;216.18;55.50;;;;;;;;;;5007494;28;20869;-44
2023/11/10 02:53:30;;;;;;;218.05;56.10;;;;;;;;;;4997420;28;20187;-44
2023/11/10 02:55:56;;;;;;;215.90;56.50;;;;;;;;;;5002860;28;20240;-44
2023/11/10 02:58:22;;;;;;;213.30;53.77;;;;;;;;;;5005641;28;20432;-44
2023/11/10 03:00:49;;;;;;;218.43;57.30;;;;;;;;;;5005224;28;20951;-44
2023/11/10 03:03:15;;;;;;;216.80;55.78;;;;;;;;;;5008030;28;20178;-44
2023/11/10 03:05:41;;;;;;;219.50;58.08;;;;;;;;;;4993511;28;20608;-44
2023/11/10 03:08:07;;;;;;;215.23;55.00;;;;;;;;;;5006110;28;20288;-44
2023/11/10 03:10:33;;;;;;;215.73;54.97;;;;;;;;;;5001591;28;20556;-44
2023/11/10 03:12:59;;;;;;;214.88;54.00;;;;;;;;;;4998282;28;20825;-44
2023/11/10 03:15:27;;;;;;;216.38;55.58;;;;;;;;;;5009760;28;20174;-44
2023/11/10 03:17:53;;;;;;;216.30;55.65;;;;;;;;;;4991817;28;20190;-44
2023/11/10 03:20:19;;;;;;;214.07;53.20;;;;;;;;;;5010125;28;20715;-44
2023/11/10 03:22:45;;;;;;;215.00;55.05;;;;;;;;;;5008880;28;20458;-44
2023/11/10 03:25:11;;;;;;;217.23;56.28;;;;;;;;;;5002152;28;20229;-44
2023/11/10 03:27:38;;;;;;;213.03;52.63;;;;;;;;;;4997545;28;20227;-44
2023/11/10 03:30:05;;;;;;;218.85;58.35;;;;;;;;;;5008677;28;20446;-44
2023/11/10 03:32:32;;;;;;;214.35;53.53;;;;;;;;;;4992417;28;20616;-44
2023/11/10 03:34:58;;;;;;;216.45;53.72;;;;;;;;;;4993705;28;20166;-44
2023/11/10 03:37:24;;;;;;;216.03;56.07;;;;;;;;;;5005334;28;20194;-44
2023/11/10 03:39:50;;;;;;;216.67;58.60;;;;;;;;;;5009002;28;20922;-44
2023/11/10 03:42:16;;;;;;;214.80;55.70;;;;;;;;;;5011246;28;20897;-44
2023/11/10 03:44:42;;;;;;;220.27;59.70;;;;;;;;;;5011151;28;20459;-44
2023/11/10 03:47:08;;;;;;;216.77;59.22;;;;;;;;;;5010985;28;20978;-44
2023/11/10 03:49:35;;;;;;;217.18;56.83;;;;;;;;;;5011260;28;20182;-44
2023/11/10 03:52:01;;;;;;;215.35;56.10;;;;;;;;;;5015953;28;20174;-44
2023/11/10 03:54:27;;;;;;;218.80;59.05;;;;;;;;;;5017674;28;20636;-44
2023/11/10 03:56:53;;;;;;;223.00;59.42;;;;;;;;;;5017323;28;20184;-44
2023/11/10 03:59:19;;;;;;;218.93;58.30;;;;;;;;;;5012440;28;20174;-44
2023/11/10 04:01:45;;;;;;;219.07;57.83;;;;;;;;;;5010955;28;20501;-44
2023/11/10 04:04:11;;;;;;;217.57;57.50;;;;;;;;;;5011143;28;20504;-43
2023/11/10 04:06:37;;;;;;;220.20;56.97;;;;;;;;;;5011367;28;20413;-43
2023/11/10 04:09:03;;;;;;;218.00;57.03;;;;;;;;;;5016468;28;20202;-44
2023/11/10 04:11:29;;;;;;;218.35;56.47;;;;;;;;;;5018861;28;20457;-44
2023/11/10 04:13:56;;;;;;;217.00;56.43;;;;;;;;;;5010964;28;20313;-44
2023/11/10 04:16:23;;;;;;;216.57;56.92;;;;;;;;;;5011008;28;20410;-44
2023/11/10 04:18:49;;;;;;;216.32;55.08;;;;;;;;;;5015037;28;20556;-44
2023/11/10 04:21:16;;;;;;;218.20;57.22;;;;;;;;;;5016761;28;20175;-44
2023/11/10 04:23:42;;;;;;;221.88;60.55;;;;;;;;;;5013615;28;20617;-44
2023/11/10 04:26:08;;;;;;;218.33;58.40;;;;;;;;;;5014841;28;20186;-44
2023/11/10 04:28:34;;;;;;;221.77;61.20;;;;;;;;;;5010452;28;20793;-44
2023/11/10 04:31:01;;;;;;;216.52;54.75;;;;;;;;;;5010867;28;20468;-44
2023/11/10 04:33:27;;;;;;;218.20;57.65;;;;;;;;;;5010591;28;20200;-44
2023/11/10 04:35:53;;;;;;;215.30;56.28;;;;;;;;;;5010842;28;20181;-44
2023/11/10 04:38:19;;;;;;;216.93;56.88;;;;;;;;;;5018174;28;20475;-44
2023/11/10 04:40:45;;;;;;;218.40;57.90;;;;;;;;;;5010886;28;20182;-44
2023/11/10 04:43:11;;;;;;;217.57;57.00;;;;;;;;;;5012427;28;20434;-44
2023/11/10 04:45:37;;;;;;;223.37;59.60;;;;;;;;;;5014238;28;20412;-44
2023/11/10 04:48:04;;;;;;;218.25;56.95;;;;;;;;;;5012653;28;20564;-44
2023/11/10 04:50:30;;;;;;;217.20;55.85;;;;;;;;;;5014133;28;20268;-44
2023/11/10 04:52:56;;;;;;;215.40;53.95;;;;;;;;;;5014484;28;20589;-45
2023/11/10 04:55:22;;;;;;;216.77;55.88;;;;;;;;;;5015475;28;20224;-44
2023/11/10 04:57:48;;;;;;;217.45;55.78;;;;;;;;;;5016433;28;20701;-44
2023/11/10 05:00:15;;;;;;;216.43;55.65;;;;;;;;;;5014094;28;20185;-45
2023/11/10 05:02:44;;;;;;;218.82;57.63;;;;;;;;;;5014069;28;20178;-45
2023/11/10 05:05:13;;;;;;;213.35;52.42;;;;;;;;;;5014226;28;20167;-44
2023/11/10 05:07:40;;;;;;;214.70;55.15;;;;;;;;;;5021656;28;21253;-44
2023/11/10 05:10:06;;;;;;;216.80;55.63;;;;;;;;;;5013946;28;20457;-44
2023/11/10 05:12:34;;;;;;;218.07;56.97;;;;;;;;;;5016359;28;20185;-44
2023/11/10 05:15:04;;;;;;;217.57;57.50;;;;;;;;;;5018171;28;20168;-44
2023/11/10 05:17:30;;;;;;;219.35;56.38;;;;;;;;;;5013559;28;20194;-44
2023/11/10 05:19:56;;;;;;;215.10;55.83;;;;;;;;;;5018210;28;20190;-44
2023/11/10 05:22:22;;;;;;;213.37;53.30;;;;;;;;;;5016530;28;20415;-44
2023/11/10 05:24:48;;;;;;;215.97;54.40;;;;;;;;;;5013529;28;20409;-44
2023/11/10 05:27:14;;;;;;;213.53;52.97;;;;;;;;;;5016021;28;20803;-44
2023/11/10 05:29:40;;;;;;;216.60;54.93;;;;;;;;;;5017623;28;20819;-44
2023/11/10 05:32:06;;;;;;;217.45;56.38;;;;;;;;;;5019557;28;20469;-45
2023/11/10 05:34:32;;;;;;;213.05;52.92;;;;;;;;;;5013112;28;20656;-44
2023/11/10 05:36:58;;;;;;;235.50;67.40;;;;;;;;;;5010007;28;20178;-44
2023/11/10 05:39:24;;;;;;;218.37;57.67;;;;;;;;;;5013496;28;21405;-45
2023/11/10 05:41:51;;;;;;;219.02;57.13;;;;;;;;;;5013151;28;20433;-44
2023/11/10 05:44:17;;;;;;;216.73;55.00;;;;;;;;;;5011345;28;20180;-44
2023/11/10 05:46:43;;;;;;;217.97;55.73;;;;;;;;;;5013056;28;20184;-44
2023/11/10 05:49:09;;;;;;;214.83;55.53;;;;;;;;;;5013058;28;20575;-44
2023/11/10 05:51:35;;;;;;;219.52;58.60;;;;;;;;;;5012820;28;20510;-44
2023/11/10 05:54:01;;;;;;;216.48;54.83;;;;;;;;;;5013576;28;20634;-44
2023/11/10 05:56:27;;;;;;;219.63;57.30;;;;;;;;;;5013006;28;20187;-44
2023/11/10 05:58:53;;;;;;;217.80;56.27;;;;;;;;;;5012456;28;20340;-44
2023/11/10 06:01:23;;;;;;;214.50;53.80;;;;;;;;;;5009586;28;20408;-45
2023/11/10 06:03:49;;;;;;;219.90;58.47;;;;;;;;;;5012663;28;20457;-44
2023/11/10 06:06:15;;;;;;;215.45;54.42;;;;;;;;;;5013318;28;20193;-44
2023/11/10 06:08:41;;;;;;;218.05;57.13;;;;;;;;;;5012271;28;20220;-44
2023/11/10 06:11:09;;;;;;;220.47;59.93;;;;;;;;;;5012665;28;20674;-44
2023/11/10 06:13:35;;;;;;;219.05;56.30;;;;;;;;;;5012442;28;20818;-45
2023/11/10 06:16:03;;;;;;;216.37;54.83;;;;;;;;;;5012840;28;20171;-44
2023/11/10 06:18:30;;;;;;;219.10;58.40;;;;;;;;;;5012236;28;20508;-44
2023/11/10 06:20:56;;;;;;;216.35;56.03;;;;;;;;;;5006360;28;20473;-44
2023/11/10 06:23:23;;;;;;;216.90;55.70;;;;;;;;;;5012417;28;20232;-44
2023/11/10 06:25:49;;;;;;;221.82;60.42;;;;;;;;;;5012188;28;20449;-44
2023/11/10 06:28:15;;;;;;;216.43;55.95;;;;;;;;;;5012232;28;20192;-44
2023/11/10 06:30:41;;;;;;;223.07;62.80;;;;;;;;;;5012164;28;20202;-44
2023/11/10 06:33:14;;;;;;;216.33;55.77;;;;;;;;;;5013429;28;20183;-44
2023/11/10 06:35:40;;;;;;;218.15;55.92;;;;;;;;;;5012673;28;20422;-44
2023/11/10 06:38:07;;;;;;;217.98;55.95;;;;;;;;;;5012365;28;20201;-44
2023/11/10 06:40:33;;;;;;;219.07;58.20;;;;;;;;;;5011976;28;20621;-44
2023/11/10 06:42:59;;;;;;;216.73;56.10;;;;;;;;;;5011721;28;20182;-44
2023/11/10 06:45:26;;;;;;;215.93;54.55;;;;;;;;;;5011235;28;20210;-44
2023/11/10 06:47:53;;;;;;;219.30;57.60;;;;;;;;;;5012289;28;20681;-44
2023/11/10 06:50:19;;;;;;;218.50;56.25;;;;;;;;;;5012331;28;20551;-43
2023/11/10 06:52:45;;;;;;;218.52;57.58;;;;;;;;;;5012475;28;20234;-45
2023/11/10 06:55:13;;;;;;;219.10;56.27;;;;;;;;;;5012313;28;20633;-44
2023/11/10 06:57:40;;;;;;;219.35;57.90;;;;;;;;;;5012145;28;20419;-43
2023/11/10 07:00:09;;;;;;;214.80;53.97;;;;;;;;;;5012366;28;20688;-43
2023/11/10 07:02:35;;;;;;;216.60;56.05;;;;;;;;;;5011695;28;20605;-44
2023/11/10 07:05:01;;;;;;;220.40;57.43;;;;;;;;;;5020005;28;20257;-44
2023/11/10 07:07:27;;;;;;;218.10;56.53;;;;;;;;;;5011127;28;20940;-44
2023/11/10 07:09:53;;;;;;;220.93;58.60;;;;;;;;;;5011924;28;20205;-44
2023/11/10 07:12:20;;;;;;;216.63;55.80;;;;;;;;;;5012431;28;20186;-43
2023/11/10 07:14:47;;;;;;;219.20;58.03;;;;;;;;;;5004143;28;20911;-44
2023/11/10 07:17:15;;;;;;;218.52;57.85;;;;;;;;;;5012365;28;20183;-44
2023/11/10 07:19:42;;;;;;;227.25;65.20;;;;;;;;;;5011956;28;20650;-44
2023/11/10 07:22:08;;;;;;;221.23;59.45;;;;;;;;;;5012040;28;20179;-44
2023/11/10 07:24:34;;;;;;;221.35;59.20;;;;;;;;;;5012220;28;20174;-44
2023/11/10 07:27:00;;;;;;;221.82;59.20;;;;;;;;;;5012003;28;20292;-43
2023/11/10 07:29:26;;;;;;;224.32;62.05;;;;;;;;;;5012135;28;20486;-44
2023/11/10 07:31:52;;;;;;;223.05;62.53;;;;;;;;;;5011826;28;20567;-44
2023/11/10 07:34:18;;;;;;;221.93;59.75;;;;;;;;;;5012222;28;20216;-43
2023/11/10 07:36:45;;;;;;;222.38;60.55;;;;;;;;;;5010251;28;20633;-44
2023/11/10 07:39:11;;;;;;;220.73;57.75;;;;;;;;;;5012187;28;20674;-43
2023/11/10 07:41:37;;;;;;;220.00;56.85;;;;;;;;;;5011891;28;20195;-44
2023/11/10 07:44:03;;;;;;;220.75;59.72;;;;;;;;;;5021722;28;20667;-44
2023/11/10 07:46:30;;;;;;;225.35;68.80;;;;;;;;;;5019447;28;20270;-44
2023/11/10 07:48:56;;;;;;;225.98;64.03;;;;;;;;;;5004420;28;20214;-44
2023/11/10 07:51:25;;;;;;;225.23;61.77;;;;;;;;;;5010082;28;20215;-44
2023/11/10 07:53:51;;;;;;;225.70;64.30;;;;;;;;;;4991601;28;20407;-44
2023/11/10 07:56:17;;;;;;;223.87;60.40;;;;;;;;;;5007973;28;20574;-44
2023/11/10 07:58:43;;;;;;;221.67;59.60;;;;;;;;;;5010346;28;20445;-46
2023/11/10 08:01:08;;;;;;;230.07;65.50;;;;;;;;;;5003261;28;20503;-43
2023/11/10 08:03:35;;;;;;;230.93;68.80;;;;;;;;;;4993855;28;20419;-43
2023/11/10 08:06:01;;;;;;;230.05;67.95;;;;;;;;;;5007881;28;20550;-45
2023/11/10 08:08:26;;;;;;;223.60;59.80;;;;;;;;;;5008347;28;20666;-43
2023/11/10 08:10:52;;;;;;;231.13;69.17;;;;;;;;;;5010214;28;20889;-44
2023/11/10 08:13:18;;;;;;;227.60;66.18;;;;;;;;;;5011373;28;20805;-44
2023/11/10 08:15:45;;;;;;;228.33;66.20;;;;;;;;;;5016086;28;20191;-43
2023/11/10 08:18:11;;;;;;;222.43;59.92;;;;;;;;;;5014466;28;20422;-44
2023/11/10 08:20:37;;;;;;;226.70;64.28;;;;;;;;;;5015252;28;20221;-43
2023/11/10 08:23:03;;;;;;;227.37;64.30;;;;;;;;;;5015021;28;20207;-44
2023/11/10 08:25:29;;;;;;;225.50;62.60;;;;;;;;;;5015263;28;20430;-44
2023/11/10 08:27:56;;;;;;;227.60;66.03;;;;;;;;;;5014817;28;20465;-44
2023/11/10 08:30:22;;;;;;;227.75;64.38;;;;;;;;;;5014993;28;20455;-45
2023/11/10 08:32:48;;;;;;;231.40;69.05;;;;;;;;;;5014943;28;20218;-44
2023/11/10 08:35:15;;;;;;;224.93;63.47;;;;;;;;;;5015056;28;20176;-44
2023/11/10 08:37:41;;;;;;;228.05;64.45;;;;;;;;;;5014537;28;20234;-43
2023/11/10 08:40:09;;;;;;;229.90;68.70;;;;;;;;;;5014901;28;20184;-43
2023/11/10 08:42:38;;;;;;;227.18;66.68;;;;;;;;;;5014355;28;20644;-44
2023/11/10 08:45:05;;;;;;;229.25;68.53;;;;;;;;;;5013808;28;20203;-43
2023/11/10 08:47:31;;;;;;;230.18;70.55;;;;;;;;;;5014208;28;20680;-43
2023/11/10 08:49:57;;;;;;;225.20;61.93;;;;;;;;;;5014678;28;20221;-44
2023/11/10 08:52:24;;;;;;;229.40;68.60;;;;;;;;;;5014490;28;20495;-45
2023/11/10 08:54:50;;;;;;;229.55;65.68;;;;;;;;;;5014733;28;20173;-44
2023/11/10 08:57:17;;;;;;;231.27;69.50;;;;;;;;;;5014247;28;20196;-44
2023/11/10 08:59:43;;;;;;;228.48;66.97;;;;;;;;;;5012181;28;20255;-44
2023/11/10 09:02:09;;;;;;;234.48;73.90;;;;;;;;;;5014295;28;20168;-44
2023/11/10 09:04:35;;;;;;;232.47;68.50;;;;;;;;;;5014506;28;20187;-44
2023/11/10 09:07:01;;;;;;;235.20;72.20;;;;;;;;;;5014333;28;20403;-44
2023/11/10 09:09:28;;;;;;;232.17;70.80;;;;;;;;;;5014814;28;20415;-43
2023/11/10 09:11:54;;;;;;;234.98;74.55;;;;;;;;;;5014342;28;20486;-43
2023/11/10 09:14:20;;;;;;;231.20;69.47;;;;;;;;;;5014407;28;20779;-44
2023/11/10 09:16:45;;;;;;;236.10;74.90;;;;;;;;;;5013772;28;20902;-45
2023/11/10 09:19:12;;;;;;;232.50;71.13;;;;;;;;;;5014286;28;20770;-43
2023/11/10 09:21:38;;;;;;;235.13;72.63;;;;;;;;;;5013960;28;20930;-43
2023/11/10 09:24:04;;;;;;;235.75;73.97;;;;;;;;;;5014183;28;20601;-45
2023/11/10 09:26:30;;;;;;;237.87;76.27;;;;;;;;;;5013999;28;20652;-44
2023/11/10 09:28:56;;;;;;;237.07;76.20;;;;;;;;;;5013735;28;20435;-43
2023/11/10 09:31:22;;;;;;;238.87;77.83;;;;;;;;;;5013756;28;20815;-44
2023/11/10 09:33:51;;;;;;;242.83;83.37;;;;;;;;;;5014057;28;20404;-44
2023/11/10 09:36:18;;;;;;;246.50;87.63;;;;;;;;;;5013850;28;20479;-44
2023/11/10 09:38:44;;;;;;;245.90;84.07;;;;;;;;;;5013515;28;20510;-44
2023/11/10 09:41:14;;;;;;;251.00;91.87;;;;;;;;;;5013788;28;20450;-45
2023/11/10 09:43:41;;;;;;;246.20;84.17;;;;;;;;;;5013595;28;20434;-44
2023/11/10 09:46:09;;;;;;;252.23;92.43;;;;;;;;;;5010598;28;20470;-44
2023/11/10 09:48:35;;;;;;;246.83;85.90;;;;;;;;;;5010807;28;20541;-44
2023/11/10 09:51:01;;;;;;;246.70;85.37;;;;;;;;;;5010948;28;20475;-44
2023/11/10 09:53:28;;;;;;;245.63;86.13;;;;;;;;;;5019066;28;20439;-44
2023/11/10 09:55:55;;;;;;;247.03;86.93;;;;;;;;;;5031738;28;20909;-44
2023/11/10 09:58:21;;;;;;;247.43;87.07;;;;;;;;;;5013788;28;20443;-44
2023/11/10 10:00:48;;;;;;;246.27;86.83;;;;;;;;;;5031072;28;20415;-43
2023/11/10 10:03:14;;;;;;;248.07;89.33;;;;;;;;;;5019471;28;20419;-44
2023/11/10 10:05:40;;;;;;;246.37;85.77;;;;;;;;;;5023060;28;20911;-45
2023/11/10 10:08:07;;;;;;;244.77;83.70;;;;;;;;;;5027433;28;20443;-44
2023/11/10 10:10:34;;;;;;;246.30;83.50;;;;;;;;;;5010278;28;20831;-44
2023/11/10 10:13:01;;;;;;;247.30;89.17;;;;;;;;;;5018599;28;20585;-44
2023/11/10 10:15:29;;;;;;;248.13;88.60;;;;;;;;;;5004533;28;20835;-46
2023/11/10 10:17:55;;;;;;;250.40;88.43;;;;;;;;;;5006761;28;20447;-44
2023/11/10 10:20:21;;;;;;;245.30;84.57;;;;;;;;;;5010980;28;20435;-45
2023/11/10 10:22:48;;;;;;;249.57;88.13;;;;;;;;;;5010017;28;20426;-44
2023/11/10 10:25:15;;;;;;;246.77;89.50;;;;;;;;;;5012646;28;20414;-44
2023/11/10 10:27:41;;;;;;;243.97;83.87;;;;;;;;;;5012723;28;20942;-44
2023/11/10 10:30:07;;;;;;;246.63;89.07;;;;;;;;;;4995438;28;20505;-44
2023/11/10 10:32:33;;;;;;;246.27;87.33;;;;;;;;;;5006614;28;20407;-44
2023/11/10 10:35:00;;;;;;;242.60;84.00;;;;;;;;;;5003493;28;20475;-44
2023/11/10 10:37:29;;;;;;;244.03;81.67;;;;;;;;;;4998202;28;20471;-44
2023/11/10 10:39:57;;;;;;;245.95;86.65;;;;;;;;;;5010387;28;20411;-44
2023/11/10 10:42:23;;;;;;;241.60;82.47;;;;;;;;;;4993263;28;20179;-44
2023/11/10 10:44:49;;;;;;;243.33;84.70;;;;;;;;;;5006300;28;20450;-44
2023/11/10 10:47:16;;;;;;;239.47;78.03;;;;;;;;;;4993283;28;20454;-44
2023/11/10 10:49:43;;;;;;;247.87;89.37;;;;;;;;;;5001656;28;20414;-43
2023/11/10 10:52:09;;;;;;;239.97;78.83;;;;;;;;;;5006567;28;20541;-43
2023/11/10 10:54:38;;;;;;;246.23;84.53;;;;;;;;;;4993673;28;20466;-45
2023/11/10 10:57:05;;;;;;;240.97;80.40;;;;;;;;;;5012055;28;20520;-43
2023/11/10 10:59:35;;;;;;;239.60;76.95;;;;;;;;;;4994467;28;20898;-44
2023/11/10 11:02:03;;;;;;;240.82;80.95;;;;;;;;;;5007194;28;20172;-43
2023/11/10 11:04:30;;;;;;;239.95;81.63;;;;;;;;;;5001692;28;20258;-45
2023/11/10 11:07:21;;;;;;;245.77;82.22;;;;;;;;;;4999142;28;20584;-44
2023/11/10 11:09:54;;;;;;;236.05;76.38;;;;;;;;;;5001308;28;20216;-44
2023/11/10 11:12:46;;;;;;;238.48;80.55;;;;;;;;;;4995498;28;20670;-44
2023/11/10 11:15:32;;;;;;;237.97;78.57;;;;;;;;;;5009891;28;20616;-43
2023/11/10 11:18:18;;;;;;;246.03;84.67;;;;;;;;;;4993213;28;20594;-44
2023/11/10 11:20:48;;;;;;;246.97;88.60;;;;;;;;;;5012123;28;20411;-45
2023/11/10 11:23:14;;;;;;;245.77;86.50;;;;;;;;;;4992670;28;20408;-44
2023/11/10 11:25:41;;;;;;;245.23;85.97;;;;;;;;;;4992980;28;20413;-43
2023/11/10 11:28:07;;;;;;;245.90;86.57;;;;;;;;;;5004015;28;20436;-45
2023/11/10 11:30:37;;;;;;;246.70;90.00;;;;;;;;;;5003918;28;20459;-44
2023/11/10 11:33:09;;;;;;;245.27;88.30;;;;;;;;;;4998377;28;20472;-43
2023/11/10 11:35:44;;;;;;;254.77;96.37;;;;;;;;;;4992353;28;20407;-43
2023/11/10 11:38:10;;;;;;;243.17;84.90;;;;;;;;;;5001161;28;20465;-43
2023/11/10 11:40:36;;;;;;;255.50;94.97;;;;;;;;;;4995336;28;20486;-43
2023/11/10 11:43:13;;;;;;;242.63;82.07;;;;;;;;;;5011348;28;20439;-44
2023/11/10 11:45:39;;;;;;;242.50;81.00;;;;;;;;;;5000549;28;20415;-44
2023/11/10 11:48:09;;;;;;;241.10;81.70;;;;;;;;;;4999288;28;20425;-44
2023/11/10 11:50:35;;;;;;;239.77;80.10;;;;;;;;;;5007803;28;20824;-45
2023/11/10 11:53:01;;;;;;;240.67;81.40;;;;;;;;;;4995316;28;20473;-45
2023/11/10 11:55:27;;;;;;;238.57;78.53;;;;;;;;;;5015725;28;20891;-44
2023/11/10 11:57:54;;;;;;;235.00;74.40;;;;;;;;;;4999733;28;20440;-43
2023/11/10 12:00:21;;;;;;;237.93;77.93;;;;;;;;;;5007483;28;20411;-44
2023/11/10 12:02:47;;;;;;;237.15;78.30;;;;;;;;;;5007902;28;20718;-43
2023/11/10 12:05:13;;;;;;;235.50;74.87;;;;;;;;;;4999330;28;20232;-44
2023/11/10 12:07:42;;;;;;;239.57;80.15;;;;;;;;;;5015254;28;20498;-43
2023/11/10 12:10:09;;;;;;;235.77;74.93;;;;;;;;;;5015452;28;20563;-43
2023/11/10 12:12:35;;;;;;;234.02;73.88;;;;;;;;;;5014509;28;20709;-43
2023/11/10 12:15:01;;;;;;;235.70;72.25;;;;;;;;;;5002319;28;20553;-44
2023/11/10 12:17:27;;;;;;;235.67;76.37;;;;;;;;;;5002014;28;20196;-43
2023/11/10 12:19:53;;;;;;;233.65;73.85;;;;;;;;;;5011650;28;20495;-44
2023/11/10 12:22:19;;;;;;;232.30;73.00;;;;;;;;;;4995726;28;20190;-43
2023/11/10 12:24:48;;;;;;;234.90;76.83;;;;;;;;;;5014837;28;20177;-43
2023/11/10 12:27:15;;;;;;;235.13;73.70;;;;;;;;;;4998689;28;20427;-44
2023/11/10 12:29:44;;;;;;;232.30;71.50;;;;;;;;;;5007095;28;20176;-43
2023/11/10 12:32:10;;;;;;;231.52;71.03;;;;;;;;;;5007498;28;20437;-43
2023/11/10 12:34:36;;;;;;;232.07;71.90;;;;;;;;;;5008991;28;20228;-43
2023/11/10 12:37:04;;;;;;;232.52;70.00;;;;;;;;;;4995254;28;20172;-43
2023/11/10 12:39:30;;;;;;;230.52;70.47;;;;;;;;;;5015130;28;20164;-44
2023/11/10 12:41:58;;;;;;;231.07;70.10;;;;;;;;;;4999055;28;20288;-44
2023/11/10 12:44:24;;;;;;;228.80;69.00;;;;;;;;;;5007386;28;20407;-44
2023/11/10 12:46:58;;;;;;;238.95;75.63;;;;;;;;;;5006414;28;20305;-43
2023/11/10 12:49:26;;;;;;;229.02;65.95;;;;;;;;;;5000175;28;20173;-43
2023/11/10 12:51:53;;;;;;;233.27;72.00;;;;;;;;;;5013207;28;20672;-44
2023/11/10 12:54:22;;;;;;;228.57;67.55;;;;;;;;;;4995372;28;20252;-44
2023/11/10 12:56:48;;;;;;;235.45;71.80;;;;;;;;;;5012246;28;20180;-44
2023/11/10 12:59:14;;;;;;;229.75;66.80;;;;;;;;;;5001218;28;20173;-43
2023/11/10 13:01:43;;;;;;;230.33;65.77;;;;;;;;;;5004177;28;20187;-43
2023/11/10 13:04:09;;;;;;;226.95;63.38;;;;;;;;;;5008711;28;20519;-43
2023/11/10 13:06:36;;;;;;;231.48;69.15;;;;;;;;;;4996616;28;20177;-43
2023/11/10 13:09:02;;;;;;;226.73;62.15;;;;;;;;;;5014449;28;20383;-44
2023/11/10 13:11:28;;;;;;;226.07;62.78;;;;;;;;;;4996792;28;20196;-44
2023/11/10 13:13:54;;;;;;;229.15;65.57;;;;;;;;;;5008224;28;20524;-44
2023/11/10 13:16:23;;;;;;;224.27;60.17;;;;;;;;;;5004707;28;20176;-43
2023/11/10 13:18:50;;;;;;;227.43;65.63;;;;;;;;;;5000237;28;20514;-43
2023/11/10 13:21:19;;;;;;;226.93;62.35;;;;;;;;;;5012437;28;20165;-43
2023/11/10 13:23:45;;;;;;;224.13;61.58;;;;;;;;;;4994676;28;20172;-43
2023/11/10 13:26:11;;;;;;;226.50;64.07;;;;;;;;;;5012429;28;20692;-44
2023/11/10 13:28:37;;;;;;;224.23;60.60;;;;;;;;;;4999806;28;20220;-43
2023/11/10 13:31:09;;;;;;;226.67;64.70;;;;;;;;;;5004131;28;20861;-43
2023/11/10 13:33:41;;;;;;;226.82;61.85;;;;;;;;;;5007503;28;20415;-43
2023/11/10 13:36:08;;;;;;;226.95;64.72;;;;;;;;;;4997536;28;20208;-44
2023/11/10 13:38:37;;;;;;;224.23;59.85;;;;;;;;;;5013791;28;20358;-43
2023/11/10 13:41:04;;;;;;;225.50;62.67;;;;;;;;;;4994429;28;20191;-44
2023/11/10 13:43:30;;;;;;;224.85;60.10;;;;;;;;;;5009707;28;20746;-43
2023/11/10 13:45:57;;;;;;;225.37;62.33;;;;;;;;;;5002084;28;20182;-43
2023/11/10 13:48:23;;;;;;;229.88;66.00;;;;;;;;;;5000344;28;20431;-44
2023/11/10 13:50:50;;;;;;;224.32;60.15;;;;;;;;;;5012987;28;20207;-43
2023/11/10 13:53:16;;;;;;;224.82;60.67;;;;;;;;;;5013749;28;20180;-44
2023/11/10 13:55:43;;;;;;;231.10;67.65;;;;;;;;;;5013213;28;20168;-44
2023/11/10 13:58:09;;;;;;;224.40;60.00;;;;;;;;;;5012649;28;20196;-44
2023/11/10 14:00:35;;;;;;;228.82;66.55;;;;;;;;;;5001990;28;20200;-44
2023/11/10 14:03:01;;;;;;;227.07;66.57;;;;;;;;;;5001348;28;20655;-44